Time;durP1;ratioP1;P1;durP2;ratioP2;P2;SDS_P1;SDS_P2;PMS_P1;PMS_P2;Temp;Humidity;BMP_temperature;BMP_pressure;BME280_temperature;BME280_humidity;BME280_pressure;Samples;Min_cycle;Max_cycle;Signal;HPM_P1;HPM_P2
2023/06/30 00:00:54;;;;;;;9.13;6.43;;;20.30;84.00;;;;;;4953556;28;20058;-85
2023/06/30 00:03:19;;;;;;;9.75;6.60;;;20.30;83.90;;;;;;4953195;28;20051;-86
2023/06/30 00:05:46;;;;;;;9.35;6.30;;;20.30;84.00;;;;;;4941184;29;20039;-85
2023/06/30 00:08:12;;;;;;;12.45;6.90;;;20.30;84.00;;;;;;4936456;28;20058;-86
2023/06/30 00:10:38;;;;;;;9.52;6.40;;;20.30;84.00;;;;;;4971761;28;20051;-86
2023/06/30 00:13:03;;;;;;;10.07;6.55;;;20.30;83.90;;;;;;4961011;28;20123;-87
2023/06/30 00:15:29;;;;;;;11.23;7.35;;;20.30;83.80;;;;;;4956725;28;20089;-86
2023/06/30 00:17:55;;;;;;;9.77;6.38;;;20.40;83.80;;;;;;4964869;28;20042;-87
2023/06/30 00:20:23;;;;;;;9.90;6.40;;;20.30;83.60;;;;;;4976368;28;20868;-86
2023/06/30 00:22:49;;;;;;;10.52;6.68;;;20.40;83.60;;;;;;4959553;28;20037;-87
2023/06/30 00:25:14;;;;;;;10.43;7.10;;;20.40;83.60;;;;;;4959137;28;20054;-86
2023/06/30 00:27:40;;;;;;;9.98;6.55;;;20.40;83.60;;;;;;4976348;28;20460;-87
2023/06/30 00:30:06;;;;;;;9.60;6.72;;;20.40;83.50;;;;;;4974325;28;20015;-86
2023/06/30 00:32:32;;;;;;;9.18;5.93;;;20.40;83.50;;;;;;4958360;28;20023;-87
2023/06/30 00:34:58;;;;;;;9.30;6.22;;;20.40;83.50;;;;;;4976886;28;20101;-86
2023/06/30 00:37:24;;;;;;;9.02;6.43;;;20.40;83.50;;;;;;4978002;28;20480;-87
2023/06/30 00:39:50;;;;;;;10.20;6.78;;;20.40;83.40;;;;;;4979243;28;20085;-86
2023/06/30 00:42:16;;;;;;;8.88;6.07;;;20.40;83.50;;;;;;4961100;28;20399;-86
2023/06/30 00:44:41;;;;;;;8.90;6.13;;;20.40;83.60;;;;;;4960568;28;20031;-86
2023/06/30 00:47:07;;;;;;;15.05;6.32;;;20.30;83.50;;;;;;4977559;28;20491;-86
2023/06/30 00:49:33;;;;;;;9.45;6.35;;;20.30;83.50;;;;;;4977845;28;20078;-87
2023/06/30 00:51:59;;;;;;;10.43;6.90;;;20.30;83.60;;;;;;4977111;28;20035;-86
2023/06/30 00:54:25;;;;;;;10.45;6.63;;;20.30;83.80;;;;;;4970062;28;20042;-84
2023/06/30 00:56:51;;;;;;;9.98;6.70;;;20.30;83.90;;;;;;4956395;28;20035;-87
2023/06/30 00:59:16;;;;;;;10.25;6.07;;;20.30;83.90;;;;;;4940054;29;20177;-86
2023/06/30 01:01:56;;;;;;;9.50;6.18;;;20.30;83.90;;;;;;4943585;29;20042;-87
2023/06/30 01:04:35;;;;;;;9.80;6.72;;;20.30;84.00;;;;;;4966174;28;20495;-87
2023/06/30 01:07:22;;;;;;;9.07;6.20;;;20.30;84.00;;;;;;4981082;28;20031;-87
2023/06/30 01:09:59;;;;;;;11.75;6.65;;;20.30;84.00;;;;;;4962964;28;20031;-85
2023/06/30 01:12:25;;;;;;;9.55;5.80;;;20.30;84.00;;;;;;4962465;28;20046;-87
2023/06/30 01:14:52;;;;;;;8.88;5.70;;;20.30;84.00;;;;;;4972201;28;20038;-85
2023/06/30 01:17:20;;;;;;;8.48;5.75;;;20.30;84.10;;;;;;4977987;28;20444;-88
2023/06/30 01:19:48;;;;;;;8.27;5.72;;;20.30;84.10;;;;;;4962382;28;20033;-87
2023/06/30 01:23:13;;;;;;;9.52;5.90;;;20.30;84.10;;;;;;4979084;28;20027;-86
2023/06/30 01:25:40;;;;;;;9.60;5.70;;;20.30;84.10;;;;;;4891038;29;20036;-85
2023/06/30 01:28:07;;;;;;;8.52;5.65;;;20.20;84.10;;;;;;4883195;29;20024;-87
2023/06/30 01:30:33;;;;;;;9.27;6.18;;;20.20;84.10;;;;;;4931911;28;20400;-86
2023/06/30 01:32:59;;;;;;;9.32;6.22;;;20.30;84.10;;;;;;4960296;28;20173;-86
2023/06/30 01:35:26;;;;;;;9.88;5.90;;;20.30;84.10;;;;;;4952323;28;20400;-87
2023/06/30 01:37:53;;;;;;;8.95;5.78;;;20.30;84.00;;;;;;4940359;29;20031;-87
2023/06/30 01:40:19;;;;;;;8.80;5.63;;;20.30;83.90;;;;;;4939840;29;20031;-87
2023/06/30 01:42:45;;;;;;;8.82;5.55;;;20.30;83.80;;;;;;4939671;29;20027;-87
2023/06/30 01:45:12;;;;;;;8.40;5.45;;;20.30;83.70;;;;;;4953461;28;20090;-86
2023/06/30 01:47:38;;;;;;;8.13;5.63;;;20.30;83.70;;;;;;4957795;28;20018;-86
2023/06/30 01:50:05;;;;;;;8.68;5.28;;;20.40;83.80;;;;;;4958043;28;20023;-86
2023/06/30 01:52:30;;;;;;;9.98;6.10;;;20.40;83.70;;;;;;4957612;28;20039;-86
2023/06/30 01:54:56;;;;;;;9.63;5.57;;;20.40;83.70;;;;;;4964285;28;20381;-86
2023/06/30 01:57:21;;;;;;;8.43;5.50;;;20.40;83.70;;;;;;4938054;29;20039;-85
2023/06/30 01:59:47;;;;;;;8.15;5.32;;;20.40;83.60;;;;;;4938173;29;20563;-86
2023/06/30 02:02:12;;;;;;;8.63;5.50;;;20.40;83.60;;;;;;4955976;29;20090;-87
2023/06/30 02:04:38;;;;;;;9.38;5.75;;;20.40;83.60;;;;;;4948460;28;20400;-87
2023/06/30 02:07:03;;;;;;;8.40;5.38;;;20.40;83.70;;;;;;4956684;28;20023;-87
2023/06/30 02:09:29;;;;;;;8.63;5.15;;;20.40;83.70;;;;;;4956164;28;20034;-85
2023/06/30 02:11:54;;;;;;;8.38;5.60;;;20.30;83.60;;;;;;4974200;28;20037;-86
2023/06/30 02:14:20;;;;;;;9.32;6.30;;;20.30;83.60;;;;;;4956371;28;20034;-86
2023/06/30 02:16:46;;;;;;;8.55;5.47;;;20.30;83.90;;;;;;4956368;28;20022;-86
2023/06/30 02:19:11;;;;;;;8.90;5.82;;;20.30;84.00;;;;;;4973892;28;20049;-85
2023/06/30 02:21:36;;;;;;;8.35;5.18;;;20.30;84.10;;;;;;4974228;28;20038;-86
2023/06/30 02:24:02;;;;;;;8.23;5.70;;;20.30;84.10;;;;;;4969539;28;20496;-86
2023/06/30 02:26:27;;;;;;;8.13;5.28;;;20.30;84.10;;;;;;4973581;28;20037;-86
2023/06/30 02:28:53;;;;;;;8.27;5.43;;;20.30;84.10;;;;;;4956132;28;20026;-86
2023/06/30 02:31:18;;;;;;;8.50;5.25;;;20.30;84.10;;;;;;4973482;28;20042;-85
2023/06/30 02:33:44;;;;;;;8.50;5.50;;;20.30;84.20;;;;;;4955361;28;20562;-86
2023/06/30 02:36:09;;;;;;;8.00;4.85;;;20.20;84.10;;;;;;4955044;28;20134;-84
2023/06/30 02:38:35;;;;;;;8.57;5.25;;;20.20;84.10;;;;;;4955758;28;20034;-86
2023/06/30 02:41:00;;;;;;;8.23;5.25;;;20.20;84.10;;;;;;4955350;28;20034;-84
2023/06/30 02:43:26;;;;;;;7.97;5.05;;;20.30;84.20;;;;;;4955225;28;20058;-85
2023/06/30 02:45:51;;;;;;;6.90;4.57;;;20.20;84.10;;;;;;4959710;28;20053;-86
2023/06/30 02:48:17;;;;;;;8.20;4.80;;;20.30;84.20;;;;;;4971691;28;20822;-85
2023/06/30 02:50:43;;;;;;;7.68;4.93;;;20.20;84.10;;;;;;4954413;28;20042;-86
2023/06/30 02:53:09;;;;;;;7.93;4.70;;;20.20;84.20;;;;;;4954558;28;20459;-86
2023/06/30 02:55:36;;;;;;;7.20;4.90;;;20.20;84.10;;;;;;4940474;28;20142;-86
2023/06/30 02:58:02;;;;;;;9.02;4.70;;;20.20;84.20;;;;;;4943348;28;20089;-86
2023/06/30 03:00:27;;;;;;;7.38;4.40;;;20.20;84.20;;;;;;4954489;28;20027;-86
2023/06/30 03:02:53;;;;;;;7.40;4.65;;;20.20;84.00;;;;;;4954921;28;20027;-85
2023/06/30 03:05:19;;;;;;;7.85;4.93;;;20.30;84.10;;;;;;4950608;28;20034;-86
2023/06/30 03:07:44;;;;;;;8.48;4.82;;;20.30;84.00;;;;;;4970778;28;20022;-86
2023/06/30 03:51:36;;;;;;;7.30;4.55;;;20.30;84.20;;;;;;4974649;28;20062;-84
2023/06/30 03:54:04;;;;;;;6.72;4.20;;;20.70;84.40;;;;;;4971714;28;20476;-83
2023/06/30 03:56:48;;;;;;;7.18;4.45;;;20.90;84.50;;;;;;4937323;29;20024;-82
2023/06/30 03:59:14;;;;;;;7.38;4.13;;;20.30;84.20;;;;;;4954091;28;20023;-80
2023/06/30 04:01:40;;;;;;;6.70;3.83;;;21.50;84.90;;;;;;4937700;29;20039;-84
2023/06/30 04:04:06;;;;;;;6.93;4.05;;;20.20;84.20;;;;;;4958572;28;20090;-86
2023/06/30 04:06:33;;;;;;;6.90;3.95;;;20.20;84.20;;;;;;4948930;28;20018;-85
2023/06/30 04:08:59;;;;;;;6.82;3.97;;;20.20;84.20;;;;;;4975978;28;20104;-85
2023/06/30 04:11:25;;;;;;;6.43;3.90;;;20.20;84.20;;;;;;4978384;28;20030;-81
2023/06/30 04:13:51;;;;;;;7.95;4.40;;;20.20;84.20;;;;;;4970776;28;20039;-84
2023/06/30 04:16:17;;;;;;;7.07;4.10;;;20.20;84.20;;;;;;4970092;28;20059;-85
2023/06/30 04:18:43;;;;;;;7.05;4.30;;;20.20;84.20;;;;;;4952874;28;20052;-85
2023/06/30 04:21:08;;;;;;;6.85;3.92;;;20.20;84.20;;;;;;4977962;28;20068;-86
2023/06/30 04:23:34;;;;;;;7.00;3.92;;;20.20;84.20;;;;;;4994854;28;20030;-85
2023/06/30 04:26:00;;;;;;;7.05;3.88;;;20.20;84.20;;;;;;4953464;29;20118;-86
2023/06/30 04:28:26;;;;;;;6.25;3.50;;;20.20;84.20;;;;;;4963511;28;20019;-85
2023/06/30 04:30:51;;;;;;;7.00;3.92;;;20.20;84.20;;;;;;4977135;28;20081;-86
2023/06/30 04:33:17;;;;;;;6.93;3.83;;;20.20;84.10;;;;;;4978151;28;20543;-86
2023/06/30 04:35:43;;;;;;;6.95;4.00;;;20.30;84.20;;;;;;4973180;28;20037;-86
2023/06/30 04:38:09;;;;;;;6.18;3.70;;;20.30;84.10;;;;;;4974971;28;20019;-86
2023/06/30 04:40:35;;;;;;;7.05;3.83;;;20.30;84.00;;;;;;4977687;28;20114;-86
2023/06/30 04:43:03;;;;;;;6.43;3.72;;;20.40;84.00;;;;;;4975747;28;20125;-86
2023/06/30 04:45:31;;;;;;;6.47;4.07;;;20.30;83.90;;;;;;4969477;28;20023;-86
2023/06/30 04:47:56;;;;;;;6.78;3.72;;;20.30;83.90;;;;;;4962724;28;20023;-86
2023/06/30 04:50:24;;;;;;;6.70;3.88;;;20.30;83.90;;;;;;4980011;28;20033;-85
2023/06/30 04:52:52;;;;;;;7.43;4.13;;;20.30;83.80;;;;;;4979665;28;20026;-84
2023/06/30 04:55:18;;;;;;;6.50;3.90;;;20.30;83.80;;;;;;4957776;28;20067;-85
2023/06/30 04:57:43;;;;;;;6.43;3.95;;;20.30;83.80;;;;;;4985445;28;20034;-85
2023/06/30 05:00:09;;;;;;;7.57;4.38;;;19.20;83.20;;;;;;4979050;28;20049;-83
2023/06/30 05:02:35;;;;;;;6.85;4.50;;;20.30;83.80;;;;;;4978573;28;20038;-83
2023/06/30 05:05:00;;;;;;;6.28;3.67;;;20.30;83.80;;;;;;4969885;28;20026;-84
2023/06/30 05:07:26;;;;;;;6.55;3.92;;;20.30;83.80;;;;;;4991282;28;20031;-84
2023/06/30 05:09:51;;;;;;;6.10;3.70;;;20.30;83.90;;;;;;4979349;28;20118;-83
2023/06/30 05:12:17;;;;;;;6.38;3.95;;;20.20;84.00;;;;;;4978354;28;20023;-84
2023/06/30 05:14:43;;;;;;;7.10;4.22;;;20.20;84.20;;;;;;4969771;28;20484;-83
2023/06/30 05:17:08;;;;;;;8.65;4.35;;;20.20;84.60;;;;;;4948210;29;20031;-85
2023/06/30 05:19:34;;;;;;;7.63;4.38;;;20.20;84.30;;;;;;4943105;29;20099;-84
2023/06/30 05:21:59;;;;;;;7.70;4.00;;;20.20;84.20;;;;;;4942355;28;20103;-83
2023/06/30 05:24:25;;;;;;;6.85;4.30;;;20.20;84.20;;;;;;4945188;28;20030;-84
2023/06/30 05:26:50;;;;;;;6.90;4.35;;;20.20;84.30;;;;;;4950172;29;20485;-84
2023/06/30 05:29:16;;;;;;;6.68;4.10;;;20.20;84.30;;;;;;4959892;29;20028;-84
2023/06/30 05:31:41;;;;;;;6.45;4.30;;;20.20;84.30;;;;;;4941951;29;20508;-84
2023/06/30 05:34:08;;;;;;;7.40;4.55;;;20.20;84.20;;;;;;4961740;28;20086;-83
2023/06/30 05:36:35;;;;;;;7.47;4.18;;;20.20;84.30;;;;;;4949532;29;20051;-84
2023/06/30 05:39:00;;;;;;;6.25;4.25;;;20.20;84.30;;;;;;4959128;29;20050;-84
2023/06/30 05:41:26;;;;;;;6.60;4.25;;;20.20;84.30;;;;;;4941420;29;20051;-83
2023/06/30 05:43:51;;;;;;;7.25;4.30;;;20.20;84.30;;;;;;4943870;28;20019;-84
2023/06/30 05:46:17;;;;;;;6.50;4.18;;;20.20;84.30;;;;;;4949006;29;20027;-84
2023/06/30 05:48:42;;;;;;;7.18;4.32;;;20.20;84.80;;;;;;4941348;29;20062;-84
2023/06/30 05:51:08;;;;;;;7.25;4.53;;;20.20;84.30;;;;;;4940456;29;20498;-84
2023/06/30 05:53:33;;;;;;;6.55;4.13;;;20.20;84.30;;;;;;4958854;28;20038;-86
2023/06/30 05:55:59;;;;;;;6.82;4.20;;;20.20;84.30;;;;;;4961891;28;20043;-84
2023/06/30 05:58:25;;;;;;;6.38;4.47;;;20.20;84.30;;;;;;4939940;29;20034;-84
2023/06/30 06:00:51;;;;;;;7.00;4.38;;;20.20;84.30;;;;;;4957886;29;20101;-84
2023/06/30 06:03:16;;;;;;;7.05;4.63;;;20.20;84.70;;;;;;4940075;29;20023;-84
2023/06/30 06:05:42;;;;;;;7.00;4.22;;;20.20;84.20;;;;;;4957059;28;20029;-85
2023/06/30 06:08:07;;;;;;;7.03;4.63;;;20.20;84.10;;;;;;4968652;28;20045;-83
2023/06/30 06:10:33;;;;;;;6.97;4.55;;;20.30;84.00;;;;;;4978789;28;20022;-84
2023/06/30 06:12:58;;;;;;;7.90;4.72;;;20.30;84.00;;;;;;4995859;28;20030;-84
2023/06/30 06:15:24;;;;;;;6.70;4.47;;;20.30;84.00;;;;;;4967254;28;20111;-84
2023/06/30 06:17:49;;;;;;;7.32;4.50;;;20.30;84.50;;;;;;4975412;28;20023;-84
2023/06/30 06:20:15;;;;;;;6.75;4.65;;;20.30;83.90;;;;;;4958626;28;20019;-84
2023/06/30 06:22:40;;;;;;;7.07;4.90;;;20.30;83.90;;;;;;4958337;28;20038;-84
2023/06/30 06:25:07;;;;;;;6.72;4.68;;;20.30;83.90;;;;;;4966621;28;20108;-84
2023/06/30 06:27:35;;;;;;;6.82;4.68;;;20.30;83.80;;;;;;4960393;28;20027;-84
2023/06/30 06:30:02;;;;;;;6.82;4.63;;;20.30;83.80;;;;;;4957890;28;20073;-84
2023/06/30 06:32:28;;;;;;;6.45;4.32;;;20.30;83.70;;;;;;4958426;28;20027;-84
2023/06/30 06:34:53;;;;;;;7.20;4.45;;;20.30;83.70;;;;;;4950584;29;20126;-84
2023/06/30 06:37:19;;;;;;;6.88;5.00;;;20.30;83.70;;;;;;4953398;28;20027;-84
2023/06/30 06:39:45;;;;;;;7.53;4.70;;;20.30;83.80;;;;;;4957592;28;20034;-84
2023/06/30 06:42:10;;;;;;;6.40;4.30;;;20.30;83.90;;;;;;4957190;28;20030;-84
2023/06/30 06:44:36;;;;;;;6.55;4.53;;;20.30;83.90;;;;;;4957788;28;20022;-84
2023/06/30 06:47:39;;;;;;;7.55;4.78;;;20.30;84.10;;;;;;4978935;28;20029;-84
2023/06/30 06:50:05;;;;;;;6.75;4.55;;;20.30;84.00;;;;;;4957238;28;20034;-85
2023/06/30 06:52:30;;;;;;;6.50;4.20;;;20.30;84.00;;;;;;4957206;28;20037;-84
2023/06/30 06:54:56;;;;;;;7.25;5.03;;;20.30;83.70;;;;;;4974193;28;20087;-86
2023/06/30 06:57:21;;;;;;;7.07;4.63;;;20.30;83.80;;;;;;4982601;28;20037;-86
2023/06/30 06:59:47;;;;;;;6.93;4.68;;;20.30;83.80;;;;;;4965635;28;20026;-86
2023/06/30 07:02:12;;;;;;;6.47;4.40;;;20.30;83.80;;;;;;4964254;28;20031;-85
2023/06/30 07:04:38;;;;;;;6.82;4.78;;;20.30;83.90;;;;;;4959972;28;20054;-85
2023/06/30 07:07:03;;;;;;;6.82;4.70;;;20.30;83.80;;;;;;4984318;28;20034;-84
2023/06/30 07:09:29;;;;;;;6.50;4.40;;;20.30;83.70;;;;;;4981128;28;20093;-86
2023/06/30 07:11:54;;;;;;;6.68;4.63;;;20.30;83.70;;;;;;4981667;28;20038;-85
2023/06/30 07:14:21;;;;;;;7.10;4.80;;;20.30;83.70;;;;;;4958252;29;20441;-87
2023/06/30 07:16:48;;;;;;;6.20;4.30;;;20.30;83.70;;;;;;4956866;28;20484;-85
2023/06/30 07:19:13;;;;;;;6.85;4.30;;;20.30;83.70;;;;;;4982231;28;20492;-84
2023/06/30 07:21:39;;;;;;;6.50;4.40;;;20.30;83.70;;;;;;4981742;28;20030;-84
2023/06/30 07:24:04;;;;;;;6.50;4.50;;;20.30;83.60;;;;;;4974549;28;20074;-84
2023/06/30 07:26:31;;;;;;;6.72;4.47;;;20.30;83.70;;;;;;4960670;28;20046;-85
2023/06/30 07:28:57;;;;;;;7.43;4.93;;;20.30;83.60;;;;;;4958670;29;20115;-84
2023/06/30 07:31:22;;;;;;;7.18;4.40;;;20.30;83.60;;;;;;4958855;29;20457;-84
2023/06/30 07:33:47;;;;;;;6.22;4.20;;;20.30;83.60;;;;;;4958035;28;20405;-84
2023/06/30 07:36:13;;;;;;;6.60;4.57;;;20.30;83.60;;;;;;4954704;29;20043;-84
2023/06/30 07:38:38;;;;;;;6.53;4.43;;;20.40;83.50;;;;;;4942138;29;20444;-84
2023/06/30 07:41:04;;;;;;;6.15;4.35;;;20.40;83.40;;;;;;4942227;29;20062;-85
2023/06/30 07:43:30;;;;;;;6.70;4.38;;;20.40;83.20;;;;;;4941311;28;20020;-84
2023/06/30 07:45:55;;;;;;;5.90;4.03;;;20.50;83.10;;;;;;4966125;28;20030;-85
2023/06/30 07:48:21;;;;;;;7.10;4.28;;;20.50;82.90;;;;;;4972715;28;20086;-86
2023/06/30 07:50:46;;;;;;;7.05;4.25;;;20.50;82.80;;;;;;4987974;28;20034;-85
2023/06/30 07:53:12;;;;;;;6.10;4.10;;;20.50;82.80;;;;;;5005157;28;20030;-85
2023/06/30 07:55:37;;;;;;;5.85;3.95;;;20.50;82.70;;;;;;4973830;28;20042;-84
2023/06/30 07:58:03;;;;;;;7.13;4.55;;;20.60;82.80;;;;;;4967201;28;20479;-85
2023/06/30 08:00:29;;;;;;;6.82;4.07;;;20.60;82.80;;;;;;4967935;28;20113;-85
2023/06/30 08:02:54;;;;;;;6.00;4.05;;;20.50;82.70;;;;;;4984537;28;20023;-85
2023/06/30 08:05:22;;;;;;;6.32;4.15;;;20.50;82.60;;;;;;4966109;28;20474;-84
2023/06/30 08:07:47;;;;;;;6.03;3.83;;;20.50;82.60;;;;;;4981854;28;20117;-85
2023/06/30 08:10:14;;;;;;;6.55;3.92;;;20.50;82.70;;;;;;4984990;28;20049;-84
2023/06/30 08:12:39;;;;;;;6.60;4.00;;;20.50;82.70;;;;;;5002728;28;20050;-84
2023/06/30 08:15:05;;;;;;;5.57;3.83;;;20.50;82.70;;;;;;4974002;28;20058;-85
2023/06/30 08:17:30;;;;;;;6.40;4.13;;;20.50;82.70;;;;;;4948287;29;20023;-85
2023/06/30 08:19:56;;;;;;;6.93;4.38;;;20.50;82.70;;;;;;4963669;29;20091;-84
2023/06/30 08:22:21;;;;;;;6.32;3.97;;;20.50;82.80;;;;;;4945443;29;20031;-84
2023/06/30 08:24:48;;;;;;;6.45;4.22;;;20.50;82.90;;;;;;4957681;28;20465;-84
2023/06/30 08:27:13;;;;;;;5.80;3.97;;;20.50;82.80;;;;;;4991931;28;20438;-85
2023/06/30 08:29:39;;;;;;;5.75;3.83;;;20.50;82.90;;;;;;4983546;28;20034;-85
2023/06/30 08:32:05;;;;;;;6.00;3.95;;;20.50;82.90;;;;;;4983145;28;20403;-84
2023/06/30 08:34:30;;;;;;;6.50;4.30;;;20.50;82.90;;;;;;4992264;28;20027;-84
2023/06/30 08:36:56;;;;;;;6.70;4.00;;;20.50;82.90;;;;;;4967882;28;20031;-84
2023/06/30 08:39:23;;;;;;;5.53;3.80;;;20.50;82.90;;;;;;4982394;28;20542;-84
2023/06/30 08:41:54;;;;;;;6.38;4.13;;;20.50;82.80;;;;;;4982168;28;20022;-84
2023/06/30 08:44:23;;;;;;;6.05;3.90;;;20.50;82.80;;;;;;4989062;28;20042;-84
2023/06/30 08:46:53;;;;;;;6.20;3.92;;;20.50;82.80;;;;;;4951854;29;20485;-84
2023/06/30 08:49:24;;;;;;;5.80;3.47;;;20.50;82.60;;;;;;4965973;28;20387;-84
2023/06/30 08:51:56;;;;;;;5.20;3.40;;;20.60;82.60;;;;;;4981611;28;20038;-85
2023/06/30 08:54:23;;;;;;;6.60;3.90;;;20.60;82.60;;;;;;4982267;28;20024;-84
2023/06/30 08:56:48;;;;;;;6.03;3.95;;;20.60;82.40;;;;;;4960283;28;20377;-85
2023/06/30 08:59:14;;;;;;;6.30;3.65;;;20.60;82.30;;;;;;4978904;28;20038;-84
2023/06/30 09:01:41;;;;;;;5.93;3.60;;;20.70;82.40;;;;;;4961773;28;20037;-84
2023/06/30 09:04:07;;;;;;;5.93;3.72;;;20.60;82.30;;;;;;4955707;29;20031;-84
2023/06/30 09:06:37;;;;;;;5.97;3.40;;;20.60;82.20;;;;;;4951102;28;20027;-84
2023/06/30 09:09:11;;;;;;;5.63;3.58;;;20.70;82.20;;;;;;4961467;28;20019;-84
2023/06/30 09:11:39;;;;;;;5.55;3.40;;;20.70;82.00;;;;;;4978697;28;20090;-83
2023/06/30 09:14:06;;;;;;;6.10;3.65;;;20.80;81.90;;;;;;4957782;28;20034;-84
2023/06/30 09:16:32;;;;;;;5.43;3.50;;;20.80;81.80;;;;;;4951896;28;20090;-84
2023/06/30 09:18:58;;;;;;;5.13;3.40;;;20.80;81.60;;;;;;4959163;29;20432;-84
2023/06/30 09:21:24;;;;;;;4.78;3.28;;;20.80;81.50;;;;;;4941424;29;20060;-85
2023/06/30 09:23:50;;;;;;;5.18;3.28;;;20.90;81.60;;;;;;4942698;28;20086;-85
2023/06/30 09:26:17;;;;;;;6.53;3.65;;;20.80;81.40;;;;;;4966166;28;20023;-84
2023/06/30 09:28:43;;;;;;;5.13;3.40;;;20.90;81.40;;;;;;4941030;29;20114;-84
2023/06/30 09:31:09;;;;;;;5.75;3.47;;;20.90;81.40;;;;;;4941004;29;20392;-84
2023/06/30 09:33:36;;;;;;;5.32;3.50;;;20.90;81.40;;;;;;4941438;28;20027;-84
2023/06/30 09:36:03;;;;;;;4.63;3.10;;;20.90;81.50;;;;;;4946474;29;20031;-84
2023/06/30 09:38:29;;;;;;;4.97;3.10;;;20.80;81.60;;;;;;4957625;29;20027;-84
2023/06/30 09:40:56;;;;;;;5.38;3.30;;;20.80;81.80;;;;;;4939889;29;20050;-84
2023/06/30 09:43:23;;;;;;;5.55;3.50;;;20.70;81.80;;;;;;4939442;28;20110;-84
2023/06/30 09:46:01;;;;;;;5.63;3.20;;;20.70;82.00;;;;;;4958742;28;20114;-84
2023/06/30 09:48:29;;;;;;;5.07;3.25;;;20.70;81.90;;;;;;4958720;28;20051;-84
2023/06/30 09:50:55;;;;;;;5.85;3.20;;;20.80;81.90;;;;;;4976408;28;20501;-84
2023/06/30 09:53:21;;;;;;;5.15;3.00;;;20.80;81.90;;;;;;4958273;28;20026;-84
2023/06/30 09:55:48;;;;;;;6.00;3.60;;;20.80;81.80;;;;;;4950420;28;20024;-85
2023/06/30 09:58:18;;;;;;;4.88;3.08;;;20.80;81.80;;;;;;4939303;29;20027;-85
2023/06/30 10:00:45;;;;;;;5.20;3.10;;;20.80;81.50;;;;;;4956709;29;20624;-84
2023/06/30 10:03:11;;;;;;;5.57;3.10;;;20.90;81.60;;;;;;4939269;28;20050;-83
2023/06/30 10:05:38;;;;;;;5.38;3.15;;;20.90;81.50;;;;;;4972792;28;20491;-84
2023/06/30 10:08:03;;;;;;;4.35;2.80;;;20.90;81.40;;;;;;4957676;28;20026;-84
2023/06/30 10:10:30;;;;;;;4.93;3.17;;;20.90;81.40;;;;;;4958072;28;20152;-84
2023/06/30 10:12:58;;;;;;;5.15;3.17;;;20.90;81.30;;;;;;4975619;28;20460;-84
2023/06/30 10:15:25;;;;;;;4.88;3.10;;;20.90;81.30;;;;;;4967680;28;20030;-84
2023/06/30 10:17:57;;;;;;;4.97;2.97;;;21.00;81.30;;;;;;4938819;29;20023;-84
2023/06/30 10:20:22;;;;;;;4.82;2.95;;;21.00;81.30;;;;;;4938483;29;20390;-84
2023/06/30 10:22:49;;;;;;;4.45;2.85;;;21.00;81.20;;;;;;4956477;29;20082;-86
2023/06/30 10:25:17;;;;;;;5.55;3.25;;;21.00;81.20;;;;;;4950252;28;20211;-86
2023/06/30 10:27:46;;;;;;;5.47;2.95;;;21.00;81.10;;;;;;4956021;29;20035;-85
2023/06/30 10:30:12;;;;;;;5.43;3.00;;;21.00;81.10;;;;;;4946767;29;20563;-84
2023/06/30 10:32:38;;;;;;;5.18;2.90;;;21.00;81.20;;;;;;4945564;29;20031;-85
2023/06/30 10:35:04;;;;;;;4.45;2.85;;;21.00;81.30;;;;;;4963911;28;20023;-85
2023/06/30 10:37:30;;;;;;;4.13;2.60;;;21.00;81.20;;;;;;4967396;28;20027;-85
2023/06/30 10:39:56;;;;;;;4.63;2.85;;;21.00;81.10;;;;;;4981799;28;20439;-85
2023/06/30 10:42:28;;;;;;;5.45;2.85;;;21.00;81.50;;;;;;4963809;28;20019;-85
2023/06/30 10:44:59;;;;;;;4.80;2.97;;;21.10;80.80;;;;;;4958804;28;20023;-84
2023/06/30 10:47:27;;;;;;;4.75;3.00;;;21.10;80.60;;;;;;4963126;28;20038;-85
2023/06/30 10:49:53;;;;;;;4.38;2.83;;;21.10;80.50;;;;;;4980638;28;20031;-85
2023/06/30 10:52:30;;;;;;;4.05;2.63;;;21.20;80.40;;;;;;4962703;28;20050;-84
2023/06/30 10:55:04;;;;;;;6.72;3.03;;;21.20;80.40;;;;;;4977915;28;20033;-84
2023/06/30 10:57:35;;;;;;;4.72;2.88;;;21.20;80.40;;;;;;4979665;28;20018;-84
2023/06/30 11:00:12;;;;;;;5.65;2.70;;;21.20;80.40;;;;;;4962279;28;20039;-84
2023/06/30 11:02:55;;;;;;;4.00;2.60;;;21.20;80.50;;;;;;4979475;28;20030;-85
2023/06/30 11:05:32;;;;;;;4.05;2.70;;;21.10;80.50;;;;;;4964143;28;20412;-85
2023/06/30 11:08:00;;;;;;;4.38;2.70;;;21.10;80.60;;;;;;4966238;28;20023;-84
2023/06/30 11:10:32;;;;;;;5.22;2.80;;;21.10;80.60;;;;;;4961455;28;20026;-84
2023/06/30 11:12:59;;;;;;;4.38;2.75;;;21.10;80.70;;;;;;4981047;28;20046;-86
2023/06/30 11:15:33;;;;;;;5.00;3.00;;;21.10;80.70;;;;;;4964594;28;20023;-86
2023/06/30 11:17:59;;;;;;;4.28;2.30;;;21.10;81.20;;;;;;4980021;28;20026;-87
2023/06/30 11:20:29;;;;;;;4.00;2.63;;;21.00;80.50;;;;;;5001439;28;20026;-85
2023/06/30 11:23:00;;;;;;;4.28;2.50;;;21.10;80.40;;;;;;5001993;28;20030;-85
2023/06/30 11:25:27;;;;;;;4.10;2.60;;;21.10;80.50;;;;;;4984460;28;20027;-84
2023/06/30 11:27:54;;;;;;;3.50;2.47;;;21.10;80.60;;;;;;4979350;28;20081;-84
2023/06/30 11:30:21;;;;;;;4.60;2.67;;;21.10;80.50;;;;;;4982593;28;20395;-85
2023/06/30 11:32:47;;;;;;;4.50;2.70;;;21.10;80.60;;;;;;4982830;28;20023;-85
2023/06/30 11:35:16;;;;;;;4.32;2.38;;;21.10;80.70;;;;;;4970934;28;20030;-86
2023/06/30 11:37:50;;;;;;;4.30;2.42;;;21.00;80.60;;;;;;4948593;28;20039;-84
2023/06/30 11:40:17;;;;;;;4.10;2.67;;;21.00;80.60;;;;;;4965933;28;20018;-85
2023/06/30 11:42:43;;;;;;;4.53;2.80;;;21.10;80.80;;;;;;4980877;28;20033;-84
2023/06/30 11:45:09;;;;;;;4.10;2.50;;;21.00;80.80;;;;;;4966161;28;20099;-85
2023/06/30 11:47:38;;;;;;;5.88;2.70;;;21.00;80.80;;;;;;4980968;28;20042;-85
2023/06/30 11:50:10;;;;;;;4.82;2.75;;;21.00;80.80;;;;;;4978911;28;20399;-84
2023/06/30 11:52:38;;;;;;;3.63;2.50;;;21.00;80.80;;;;;;4978406;28;20023;-84
2023/06/30 11:55:11;;;;;;;4.63;2.60;;;21.00;80.80;;;;;;4952996;28;20058;-84
2023/06/30 11:57:39;;;;;;;3.75;2.60;;;21.00;80.80;;;;;;4960367;28;20051;-84
2023/06/30 12:00:08;;;;;;;4.20;2.60;;;21.00;80.80;;;;;;4958932;29;20042;-85
2023/06/30 12:02:33;;;;;;;3.85;2.42;;;21.00;80.80;;;;;;4958410;29;20053;-84
2023/06/30 12:04:59;;;;;;;3.70;2.50;;;21.00;80.90;;;;;;4964486;28;20027;-84
2023/06/30 12:07:24;;;;;;;3.97;2.45;;;21.00;80.90;;;;;;4948598;28;20041;-84
2023/06/30 12:10:00;;;;;;;3.95;2.50;;;21.00;81.50;;;;;;4980829;28;20027;-85
2023/06/30 12:12:27;;;;;;;4.20;2.67;;;21.00;80.80;;;;;;4975781;28;20023;-85
2023/06/30 12:14:53;;;;;;;3.78;2.55;;;21.00;80.70;;;;;;4979621;28;20035;-83
2023/06/30 12:17:19;;;;;;;3.95;2.70;;;21.00;80.70;;;;;;4944303;29;20090;-84
2023/06/30 12:19:45;;;;;;;3.97;2.40;;;21.10;80.70;;;;;;4957848;29;20047;-84
2023/06/30 12:22:12;;;;;;;3.72;2.45;;;21.10;80.60;;;;;;4940309;29;20031;-85
2023/06/30 12:24:41;;;;;;;4.15;2.70;;;21.00;81.00;;;;;;4962573;28;20049;-84
2023/06/30 12:27:08;;;;;;;4.35;2.63;;;21.00;80.50;;;;;;4962139;28;20110;-86
2023/06/30 12:29:35;;;;;;;4.32;2.40;;;21.00;80.50;;;;;;4977802;28;20434;-84
2023/06/30 12:32:10;;;;;;;4.28;2.63;;;21.00;80.40;;;;;;4999022;28;20022;-85
2023/06/30 12:34:36;;;;;;;3.83;2.60;;;21.10;80.50;;;;;;4982535;28;20185;-84
2023/06/30 12:37:02;;;;;;;3.60;2.42;;;21.00;80.40;;;;;;4948413;29;20508;-85
2023/06/30 12:39:28;;;;;;;3.63;2.42;;;21.00;80.40;;;;;;4959740;28;20484;-83
2023/06/30 12:41:54;;;;;;;3.80;2.30;;;21.00;80.50;;;;;;4941423;29;20035;-85
2023/06/30 12:44:20;;;;;;;3.97;2.45;;;21.00;80.60;;;;;;4963774;28;20034;-84
2023/06/30 12:46:57;;;;;;;4.80;2.83;;;21.00;80.70;;;;;;4951952;28;20117;-84
2023/06/30 12:49:22;;;;;;;4.57;2.88;;;21.00;80.70;;;;;;4978241;28;20034;-85
2023/06/30 12:51:48;;;;;;;4.38;2.60;;;20.90;80.80;;;;;;4960706;28;20164;-84
2023/06/30 12:54:13;;;;;;;3.22;2.40;;;20.90;80.80;;;;;;4952857;29;20065;-84
2023/06/30 12:56:39;;;;;;;4.97;2.80;;;20.90;80.90;;;;;;4962813;28;20026;-84
2023/06/30 12:59:04;;;;;;;4.40;2.72;;;20.90;81.00;;;;;;4987824;28;20452;-84
2023/06/30 13:01:30;;;;;;;3.95;2.53;;;20.90;80.90;;;;;;4977782;28;20026;-84
2023/06/30 13:03:55;;;;;;;4.43;2.70;;;20.90;80.90;;;;;;4972214;28;20469;-84
2023/06/30 13:06:21;;;;;;;3.95;2.50;;;20.90;81.00;;;;;;4956527;28;20031;-84
2023/06/30 13:08:46;;;;;;;4.65;2.78;;;20.90;81.00;;;;;;4977503;28;20027;-84
2023/06/30 13:11:12;;;;;;;4.45;2.65;;;20.90;80.90;;;;;;4977108;28;20034;-84
2023/06/30 13:13:37;;;;;;;4.28;2.65;;;20.90;81.00;;;;;;4957921;28;20038;-84
2023/06/30 13:16:03;;;;;;;4.45;2.75;;;20.90;81.20;;;;;;4950580;29;20488;-85
2023/06/30 13:18:28;;;;;;;4.13;2.50;;;20.80;81.10;;;;;;4940247;29;20114;-85
2023/06/30 13:20:54;;;;;;;4.10;2.67;;;20.80;81.10;;;;;;4940010;29;20421;-84
2023/06/30 13:23:19;;;;;;;3.90;2.53;;;20.80;81.10;;;;;;4957103;28;20032;-85
2023/06/30 13:25:45;;;;;;;4.03;2.45;;;20.80;81.20;;;;;;4971036;28;20119;-84